This is the latest recevied weather packets stored in our database for station/object KC8JWT. If no packets are shown the sender has not sent any weather packets the latest 10 day(s).
| Time | Temp. | Humidity | Pressure | Rain* | Wind** | Luminosity | Snow |
|---|---|---|---|---|---|---|---|
| 1777904910 | 18.33° C | 62% | 1012.5 hPa | 0 mm | - | 319 W/m² | - |
| 1777904607 | 17.78° C | 64% | 1012.2 hPa | 0 mm | - | 792 W/m² | - |
| 1777904304 | 17.78° C | 63% | 1012.3 hPa | 0 mm | - | 452 W/m² | - |
| 1777904001 | 17.78° C | 62% | 1012.2 hPa | 0 mm | - | 309 W/m² | - |
| 1777903698 | 17.78° C | 64% | 1012.6 hPa | 0 mm | - | 257 W/m² | - |
| 1777903394 | 17.78° C | 62% | 1012.2 hPa | 0 mm | - | 643 W/m² | - |
| 1777903090 | 17.78° C | 61% | 1012.3 hPa | 0 mm | - | 278 W/m² | - |
| 1777902787 | 17.78° C | 61% | 1012.2 hPa | 0 mm | - | 422 W/m² | - |
| 1777902485 | 17.78° C | 60% | 1012.1 hPa | 0 mm | - | 378 W/m² | - |
| 1777902181 | 17.78° C | 60% | 1012.1 hPa | 0 mm | - | 373 W/m² | - |
| 1777901879 | 17.78° C | 61% | 1012.3 hPa | 0 mm | - | 455 W/m² | - |
| 1777901576 | 17.22° C | 63% | 1012.3 hPa | 0 mm | - | 427 W/m² | - |
| 1777901273 | 16.67° C | 63% | 1012.2 hPa | 0 mm | - | 378 W/m² | - |
| 1777900971 | 16.11° C | 63% | 1012.2 hPa | 0 mm | - | 285 W/m² | - |
| 1777900668 | 16.11° C | 62% | 1012.3 hPa | 0 mm | - | 223 W/m² | - |
| 1777900365 | 16.11° C | 63% | 1012.3 hPa | 0 mm | - | 216 W/m² | - |
| 1777900063 | 16.11° C | 61% | 1012.2 hPa | 0 mm | - | 220 W/m² | - |
| 1777899758 | 16.67° C | 62% | 1012.1 hPa | 0 mm | - | 224 W/m² | - |
| 1777899455 | 16.11° C | 61% | 1012.1 hPa | 0 mm | - | 265 W/m² | - |
| 1777899153 | 16.11° C | 61% | 1012.1 hPa | 0 mm | - | 291 W/m² | - |
| 1777898851 | 15.56° C | 62% | 1012.2 hPa | 0 mm | - | 230 W/m² | - |
| 1777898548 | 15° C | 63% | 1011.8 hPa | 0 mm | - | 254 W/m² | - |
| 1777898245 | 15° C | 63% | 1012.3 hPa | 0 mm | - | 115 W/m² | - |
| 1777897943 | 15.56° C | 63% | 1012.4 hPa | 0 mm | - | 213 W/m² | - |
| 1777897638 | 16.11° C | 61% | 1012.2 hPa | 0 mm | - | 226 W/m² | - |
* Rain latest hour (hover to see other rain measurements)
** Current wind speed in m/s (hover to see current wind gust speed)